sensor_id;sensor_type;location;lat;lon;timestamp;pressure;altitude;pressure_sealevel;temperature;humidity
46015;BME280;36844;51.898;-0.874;2023-03-26T00:01:51;99153.47;;;19.21;
46015;BME280;36844;51.898;-0.874;2023-03-26T00:04:16;99150.50;;;19.19;
46015;BME280;36844;51.898;-0.874;2023-03-26T00:06:44;99158.22;;;19.17;
46015;BME280;36844;51.898;-0.874;2023-03-26T00:09:13;99151.00;;;19.14;
46015;BME280;36844;51.898;-0.874;2023-03-26T00:11:38;99150.72;;;19.12;
46015;BME280;36844;51.898;-0.874;2023-03-26T00:14:03;99148.44;;;19.11;
46015;BME280;36844;51.898;-0.874;2023-03-26T00:16:29;99144.69;;;19.08;
46015;BME280;36844;51.898;-0.874;2023-03-26T00:18:55;99143.56;;;19.06;
46015;BME280;36844;51.898;-0.874;2023-03-26T00:21:22;99140.56;;;19.04;
46015;BME280;36844;51.898;-0.874;2023-03-26T00:23:52;99139.47;;;19.01;
46015;BME280;36844;51.898;-0.874;2023-03-26T00:26:17;99133.75;;;18.99;
46015;BME280;36844;51.898;-0.874;2023-03-26T00:28:42;99124.19;;;18.98;
46015;BME280;36844;51.898;-0.874;2023-03-26T00:31:10;99131.94;;;18.96;
46015;BME280;36844;51.898;-0.874;2023-03-26T00:33:36;99124.28;;;18.95;
46015;BME280;36844;51.898;-0.874;2023-03-26T00:36:02;99119.34;;;18.93;
46015;BME280;36844;51.898;-0.874;2023-03-26T00:38:28;99120.94;;;18.91;
46015;BME280;36844;51.898;-0.874;2023-03-26T00:40:54;99110.59;;;18.89;
46015;BME280;36844;51.898;-0.874;2023-03-26T00:43:21;99113.72;;;18.88;
46015;BME280;36844;51.898;-0.874;2023-03-26T00:45:46;99108.75;;;18.86;
46015;BME280;36844;51.898;-0.874;2023-03-26T00:48:12;99110.38;;;18.84;
46015;BME280;36844;51.898;-0.874;2023-03-26T00:50:38;99100.00;;;18.82;
46015;BME280;36844;51.898;-0.874;2023-03-26T00:53:03;99097.03;;;18.80;
46015;BME280;36844;51.898;-0.874;2023-03-26T00:55:29;99088.59;;;18.78;
46015;BME280;36844;51.898;-0.874;2023-03-26T00:57:54;99089.81;;;18.77;
46015;BME280;36844;51.898;-0.874;2023-03-26T01:00:26;99077.91;;;18.74;
46015;BME280;36844;51.898;-0.874;2023-03-26T01:02:52;99083.75;;;18.73;
46015;BME280;36844;51.898;-0.874;2023-03-26T01:05:37;99067.22;;;18.71;
46015;BME280;36844;51.898;-0.874;2023-03-26T01:08:15;99064.25;;;18.69;
46015;BME280;36844;51.898;-0.874;2023-03-26T01:10:41;99062.72;;;18.68;
46015;BME280;36844;51.898;-0.874;2023-03-26T01:13:08;99058.97;;;18.65;
46015;BME280;36844;51.898;-0.874;2023-03-26T01:15:33;99054.75;;;18.64;
46015;BME280;36844;51.898;-0.874;2023-03-26T01:18:01;99044.41;;;18.63;
46015;BME280;36844;51.898;-0.874;2023-03-26T01:20:29;99040.19;;;18.62;
46015;BME280;36844;51.898;-0.874;2023-03-26T01:22:56;99040.63;;;18.60;
46015;BME280;36844;51.898;-0.874;2023-03-26T01:25:24;99035.66;;;18.59;
46015;BME280;36844;51.898;-0.874;2023-03-26T01:27:55;99042.25;;;18.58;
46015;BME280;36844;51.898;-0.874;2023-03-26T01:40:19;99023.63;;;18.51;
46015;BME280;36844;51.898;-0.874;2023-03-26T01:45:34;99024.47;;;18.48;
46015;BME280;36844;51.898;-0.874;2023-03-26T01:48:00;99020.28;;;18.47;
46015;BME280;36844;51.898;-0.874;2023-03-26T01:50:25;99023.41;;;18.45;
46015;BME280;36844;51.898;-0.874;2023-03-26T01:52:51;99021.13;;;18.44;
46015;BME280;36844;51.898;-0.874;2023-03-26T01:55:16;99014.22;;;18.43;
46015;BME280;36844;51.898;-0.874;2023-03-26T02:03:12;99017.47;;;18.38;
46015;BME280;36844;51.898;-0.874;2023-03-26T02:08:20;99006.34;;;18.36;
46015;BME280;36844;51.898;-0.874;2023-03-26T02:10:47;98990.66;;;18.34;
46015;BME280;36844;51.898;-0.874;2023-03-26T02:13:14;98990.28;;;18.32;
46015;BME280;36844;51.898;-0.874;2023-03-26T02:15:39;98986.88;;;18.32;
46015;BME280;36844;51.898;-0.874;2023-03-26T02:18:05;98985.38;;;18.31;
46015;BME280;36844;51.898;-0.874;2023-03-26T02:20:34;98990.41;;;18.29;
46015;BME280;36844;51.898;-0.874;2023-03-26T02:23:00;98990.41;;;18.29;
46015;BME280;36844;51.898;-0.874;2023-03-26T02:25:25;98983.56;;;18.28;
46015;BME280;36844;51.898;-0.874;2023-03-26T02:27:51;98979.75;;;18.25;
46015;BME280;36844;51.898;-0.874;2023-03-26T02:30:26;98972.41;;;18.26;
46015;BME280;36844;51.898;-0.874;2023-03-26T02:32:53;98970.16;;;18.24;
46015;BME280;36844;51.898;-0.874;2023-03-26T02:35:19;98971.38;;;18.23;
46015;BME280;36844;51.898;-0.874;2023-03-26T02:37:45;98970.59;;;18.23;
46015;BME280;36844;51.898;-0.874;2023-03-26T02:40:11;98954.09;;;18.21;
46015;BME280;36844;51.898;-0.874;2023-03-26T02:42:36;98954.09;;;18.21;
46015;BME280;36844;51.898;-0.874;2023-03-26T02:45:02;98946.47;;;18.19;
46015;BME280;36844;51.898;-0.874;2023-03-26T02:47:27;98939.56;;;18.18;
46015;BME280;36844;51.898;-0.874;2023-03-26T02:49:52;98933.41;;;18.18;
46015;BME280;36844;51.898;-0.874;2023-03-26T02:52:18;98931.91;;;18.17;
46015;BME280;36844;51.898;-0.874;2023-03-26T02:54:43;98930.41;;;18.16;
46015;BME280;36844;51.898;-0.874;2023-03-26T02:57:08;98936.56;;;18.16;
46015;BME280;36844;51.898;-0.874;2023-03-26T02:59:33;98930.81;;;18.14;
46015;BME280;36844;51.898;-0.874;2023-03-26T03:01:58;98928.59;;;18.13;
46015;BME280;36844;51.898;-0.874;2023-03-26T03:04:24;98930.53;;;18.12;
46015;BME280;36844;51.898;-0.874;2023-03-26T03:06:49;98934.41;;;18.11;
46015;BME280;36844;51.898;-0.874;2023-03-26T03:09:17;98928.25;;;18.11;
46015;BME280;36844;51.898;-0.874;2023-03-26T03:11:43;98919.88;;;18.09;
46015;BME280;36844;51.898;-0.874;2023-03-26T03:14:08;98919.13;;;18.08;
46015;BME280;36844;51.898;-0.874;2023-03-26T03:16:33;98918.34;;;18.08;
46015;BME280;36844;51.898;-0.874;2023-03-26T03:18:58;98916.81;;;18.07;
46015;BME280;36844;51.898;-0.874;2023-03-26T03:21:27;98909.19;;;18.05;
46015;BME280;36844;51.898;-0.874;2023-03-26T03:23:53;98900.38;;;18.05;
46015;BME280;36844;51.898;-0.874;2023-03-26T03:26:19;98893.47;;;18.04;
46015;BME280;36844;51.898;-0.874;2023-03-26T03:28:46;98894.63;;;18.03;
46015;BME280;36844;51.898;-0.874;2023-03-26T03:31:11;98883.84;;;18.03;
46015;BME280;36844;51.898;-0.874;2023-03-26T03:33:37;98881.63;;;18.01;
46015;BME280;36844;51.898;-0.874;2023-03-26T03:36:02;98888.19;;;18.00;
46015;BME280;36844;51.898;-0.874;2023-03-26T03:38:34;98887.44;;;18.00;
46015;BME280;36844;51.898;-0.874;2023-03-26T03:40:59;98877.84;;;17.99;
46015;BME280;36844;51.898;-0.874;2023-03-26T03:43:24;98881.72;;;17.98;
46015;BME280;36844;51.898;-0.874;2023-03-26T03:45:51;98872.16;;;17.97;
46015;BME280;36844;51.898;-0.874;2023-03-26T03:48:16;98871.38;;;17.96;
46015;BME280;36844;51.898;-0.874;2023-03-26T03:50:42;98871.81;;;17.95;
46015;BME280;36844;51.898;-0.874;2023-03-26T03:53:08;98871.81;;;17.95;
46015;BME280;36844;51.898;-0.874;2023-03-26T03:55:33;98864.91;;;17.94;
46015;BME280;36844;51.898;-0.874;2023-03-26T03:58:02;98871.50;;;17.93;
46015;BME280;36844;51.898;-0.874;2023-03-26T04:00:27;98876.56;;;17.91;
46015;BME280;36844;51.898;-0.874;2023-03-26T04:02:54;98873.88;;;17.91;
46015;BME280;36844;51.898;-0.874;2023-03-26T04:05:20;98875.81;;;17.90;
46015;BME280;36844;51.898;-0.874;2023-03-26T04:07:45;98875.06;;;17.90;
46015;BME280;36844;51.898;-0.874;2023-03-26T04:10:12;98876.25;;;17.89;
46015;BME280;36844;51.898;-0.874;2023-03-26T04:12:38;98873.56;;;17.89;
46015;BME280;36844;51.898;-0.874;2023-03-26T04:15:04;98876.69;;;17.87;
46015;BME280;36844;51.898;-0.874;2023-03-26T04:17:29;98877.84;;;17.86;
46015;BME280;36844;51.898;-0.874;2023-03-26T04:19:55;98874.88;;;17.84;
46015;BME280;36844;51.898;-0.874;2023-03-26T04:22:20;98870.22;;;17.85;
46015;BME280;36844;51.898;-0.874;2023-03-26T04:24:46;98876.78;;;17.84;
46015;BME280;36844;51.898;-0.874;2023-03-26T04:27:15;98881.41;;;17.83;
46015;BME280;36844;51.898;-0.874;2023-03-26T04:29:41;98875.28;;;17.83;
46015;BME280;36844;51.898;-0.874;2023-03-26T04:32:27;98876.47;;;17.82;
46015;BME280;36844;51.898;-0.874;2023-03-26T04:34:58;98883.06;;;17.81;
46015;BME280;36844;51.898;-0.874;2023-03-26T04:37:28;98880.78;;;17.79;
46015;BME280;36844;51.898;-0.874;2023-03-26T04:40:01;98880.44;;;17.77;
46015;BME280;36844;51.898;-0.874;2023-03-26T04:42:34;98871.63;;;17.77;
46015;BME280;36844;51.898;-0.874;2023-03-26T04:44:59;98880.88;;;17.75;
46015;BME280;36844;51.898;-0.874;2023-03-26T04:47:27;98880.88;;;17.75;
46015;BME280;36844;51.898;-0.874;2023-03-26T04:49:52;98875.19;;;17.73;
46015;BME280;36844;51.898;-0.874;2023-03-26T04:52:18;98878.63;;;17.74;
46015;BME280;36844;51.898;-0.874;2023-03-26T04:54:44;98877.13;;;17.73;
46015;BME280;36844;51.898;-0.874;2023-03-26T04:59:41;98880.25;;;17.71;
46015;BME280;36844;51.898;-0.874;2023-03-26T05:02:07;98882.16;;;17.71;
46015;BME280;36844;51.898;-0.874;2023-03-26T05:04:33;98884.84;;;17.71;
46015;BME280;36844;51.898;-0.874;2023-03-26T05:07:01;98884.56;;;17.69;
46015;BME280;36844;51.898;-0.874;2023-03-26T05:09:27;98881.88;;;17.69;
46015;BME280;36844;51.898;-0.874;2023-03-26T05:11:52;98893.41;;;17.69;
46015;BME280;36844;51.898;-0.874;2023-03-26T05:14:17;98895.75;;;17.67;
46015;BME280;36844;51.898;-0.874;2023-03-26T05:16:43;98894.97;;;17.67;
46015;BME280;36844;51.898;-0.874;2023-03-26T05:19:10;98898.13;;;17.65;
46015;BME280;36844;51.898;-0.874;2023-03-26T05:21:35;98898.13;;;17.65;
46015;BME280;36844;51.898;-0.874;2023-03-26T05:24:01;98895.84;;;17.64;
46015;BME280;36844;51.898;-0.874;2023-03-26T05:26:26;98896.59;;;17.64;
46015;BME280;36844;51.898;-0.874;2023-03-26T05:28:53;98903.16;;;17.63;
46015;BME280;36844;51.898;-0.874;2023-03-26T05:31:18;98898.97;;;17.62;
46015;BME280;36844;51.898;-0.874;2023-03-26T05:33:45;98901.66;;;17.62;
46015;BME280;36844;51.898;-0.874;2023-03-26T05:36:11;98903.63;;;17.62;
46015;BME280;36844;51.898;-0.874;2023-03-26T05:38:39;98906.72;;;17.60;
46015;BME280;36844;51.898;-0.874;2023-03-26T05:41:05;98917.50;;;17.60;
46015;BME280;36844;51.898;-0.874;2023-03-26T05:43:31;98922.13;;;17.60;
46015;BME280;36844;51.898;-0.874;2023-03-26T05:45:57;98921.34;;;17.59;
46015;BME280;36844;51.898;-0.874;2023-03-26T05:48:22;98915.97;;;17.59;
46015;BME280;36844;51.898;-0.874;2023-03-26T05:50:49;98922.13;;;17.60;
46015;BME280;36844;51.898;-0.874;2023-03-26T05:53:14;98922.88;;;17.60;
46015;BME280;36844;51.898;-0.874;2023-03-26T05:55:39;98921.72;;;17.61;
46015;BME280;36844;51.898;-0.874;2023-03-26T05:58:05;98923.19;;;17.62;
46015;BME280;36844;51.898;-0.874;2023-03-26T06:00:30;98930.09;;;17.63;
46015;BME280;36844;51.898;-0.874;2023-03-26T06:02:55;98924.28;;;17.65;
46015;BME280;36844;51.898;-0.874;2023-03-26T06:05:21;98921.91;;;17.67;
46015;BME280;36844;51.898;-0.874;2023-03-26T06:07:46;98928.41;;;17.69;
46015;BME280;36844;51.898;-0.874;2023-03-26T06:10:11;98924.84;;;17.72;
46015;BME280;36844;51.898;-0.874;2023-03-26T06:12:37;98928.59;;;17.75;
46015;BME280;36844;51.898;-0.874;2023-03-26T06:15:02;98928.47;;;17.78;
46015;BME280;36844;51.898;-0.874;2023-03-26T06:17:27;98927.19;;;17.83;
46015;BME280;36844;51.898;-0.874;2023-03-26T06:19:53;98927.09;;;17.87;
46015;BME280;36844;51.898;-0.874;2023-03-26T06:22:18;98930.44;;;17.91;
46015;BME280;36844;51.898;-0.874;2023-03-26T06:24:43;98932.25;;;17.94;
46015;BME280;36844;51.898;-0.874;2023-03-26T06:27:08;98938.28;;;17.98;
46015;BME280;36844;51.898;-0.874;2023-03-26T06:29:34;98936.25;;;18.02;
46015;BME280;36844;51.898;-0.874;2023-03-26T06:31:59;98947.66;;;18.06;
46015;BME280;36844;51.898;-0.874;2023-03-26T06:34:24;98944.13;;;18.09;
46015;BME280;36844;51.898;-0.874;2023-03-26T06:36:49;98942.06;;;18.13;
46015;BME280;36844;51.898;-0.874;2023-03-26T06:39:16;98949.28;;;18.16;
46015;BME280;36844;51.898;-0.874;2023-03-26T06:41:42;98953.03;;;18.18;
46015;BME280;36844;51.898;-0.874;2023-03-26T06:44:07;98950.22;;;18.22;
46015;BME280;36844;51.898;-0.874;2023-03-26T06:46:32;98960.13;;;18.25;
46015;BME280;36844;51.898;-0.874;2023-03-26T06:48:57;98961.22;;;18.27;
46015;BME280;36844;51.898;-0.874;2023-03-26T06:51:23;98967.69;;;18.30;
46015;BME280;36844;51.898;-0.874;2023-03-26T06:53:48;98967.28;;;18.31;
46015;BME280;36844;51.898;-0.874;2023-03-26T06:56:14;98966.81;;;18.33;
46015;BME280;36844;51.898;-0.874;2023-03-26T06:58:39;98973.28;;;18.35;
46015;BME280;36844;51.898;-0.874;2023-03-26T07:01:05;98975.53;;;18.37;
46015;BME280;36844;51.898;-0.874;2023-03-26T07:03:30;98979.75;;;18.38;
46015;BME280;36844;51.898;-0.874;2023-03-26T07:05:55;98993.53;;;18.40;
46015;BME280;36844;51.898;-0.874;2023-03-26T07:08:21;98995.03;;;18.41;
46015;BME280;36844;51.898;-0.874;2023-03-26T07:10:46;98989.97;;;18.43;
46015;BME280;36844;51.898;-0.874;2023-03-26T07:13:11;98999.56;;;18.44;
46015;BME280;36844;51.898;-0.874;2023-03-26T07:15:36;99002.25;;;18.44;
46015;BME280;36844;51.898;-0.874;2023-03-26T07:18:02;99001.06;;;18.45;
46015;BME280;36844;51.898;-0.874;2023-03-26T07:20:27;99009.16;;;18.45;
46015;BME280;36844;51.898;-0.874;2023-03-26T07:22:52;99010.66;;;18.46;
46015;BME280;36844;51.898;-0.874;2023-03-26T07:25:18;99016.81;;;18.46;
46015;BME280;36844;51.898;-0.874;2023-03-26T07:30:31;99034.91;;;18.46;
46015;BME280;36844;51.898;-0.874;2023-03-26T07:33:05;99029.53;;;18.46;
46015;BME280;36844;51.898;-0.874;2023-03-26T07:43:27;99044.22;;;18.45;
46015;BME280;36844;51.898;-0.874;2023-03-26T07:45:53;99039.25;;;18.43;
46015;BME280;36844;51.898;-0.874;2023-03-26T07:48:20;99051.97;;;18.43;
46015;BME280;36844;51.898;-0.874;2023-03-26T07:50:46;99049.72;;;18.41;
46015;BME280;36844;51.898;-0.874;2023-03-26T07:53:11;99056.59;;;18.42;
46015;BME280;36844;51.898;-0.874;2023-03-26T07:55:40;99056.28;;;18.40;
46015;BME280;36844;51.898;-0.874;2023-03-26T08:00:33;99070.19;;;18.39;
46015;BME280;36844;51.898;-0.874;2023-03-26T08:05:30;99076.00;;;18.37;
46015;BME280;36844;51.898;-0.874;2023-03-26T08:08:17;99078.38;;;18.35;
46015;BME280;36844;51.898;-0.874;2023-03-26T08:16:06;99093.16;;;18.31;
46015;BME280;36844;51.898;-0.874;2023-03-26T08:21:10;99090.13;;;18.29;
46015;BME280;36844;51.898;-0.874;2023-03-26T08:23:50;99099.44;;;18.28;
46015;BME280;36844;51.898;-0.874;2023-03-26T08:29:00;99117.94;;;18.26;
46015;BME280;36844;51.898;-0.874;2023-03-26T08:31:33;99120.34;;;18.24;
46015;BME280;36844;51.898;-0.874;2023-03-26T08:33:59;99126.47;;;18.24;
46015;BME280;36844;51.898;-0.874;2023-03-26T08:36:24;99126.13;;;18.22;
46015;BME280;36844;51.898;-0.874;2023-03-26T08:38:50;99136.91;;;18.22;
46015;BME280;36844;51.898;-0.874;2023-03-26T08:41:31;99137.31;;;18.21;
46015;BME280;36844;51.898;-0.874;2023-03-26T08:54:13;99167.91;;;18.14;
46015;BME280;36844;51.898;-0.874;2023-03-26T08:56:52;99171.06;;;18.13;
46015;BME280;36844;51.898;-0.874;2023-03-26T09:02:09;99183.41;;;18.10;
46015;BME280;36844;51.898;-0.874;2023-03-26T09:33:19;99241.84;;;18.13;
46015;BME280;36844;51.898;-0.874;2023-03-26T09:59:25;99304.16;;;18.31;
46015;BME280;36844;51.898;-0.874;2023-03-26T10:07:08;99322.91;;;18.35;
46015;BME280;36844;51.898;-0.874;2023-03-26T10:14:45;99334.78;;;18.37;
46015;BME280;36844;51.898;-0.874;2023-03-26T10:17:35;99349.00;;;18.38;
46015;BME280;36844;51.898;-0.874;2023-03-26T10:23:03;99360.97;;;18.37;
46015;BME280;36844;51.898;-0.874;2023-03-26T10:33:07;99382.53;;;18.37;
46015;BME280;36844;51.898;-0.874;2023-03-26T10:35:40;99389.84;;;18.36;
46015;BME280;36844;51.898;-0.874;2023-03-26T10:51:44;99432.66;;;18.34;
46015;BME280;36844;51.898;-0.874;2023-03-26T10:56:48;99453.47;;;18.34;
46015;BME280;36844;51.898;-0.874;2023-03-26T10:59:14;99460.78;;;18.33;
46015;BME280;36844;51.898;-0.874;2023-03-26T11:01:41;99471.56;;;18.33;
46015;BME280;36844;51.898;-0.874;2023-03-26T11:04:19;99465.09;;;18.31;
46015;BME280;36844;51.898;-0.874;2023-03-26T11:11:52;99502.38;;;18.32;
46015;BME280;36844;51.898;-0.874;2023-03-26T11:17:14;99514.78;;;18.30;
46015;BME280;36844;51.898;-0.874;2023-03-26T11:22:13;99509.38;;;18.30;
46015;BME280;36844;51.898;-0.874;2023-03-26T11:27:15;99523.63;;;18.30;
46015;BME280;36844;51.898;-0.874;2023-03-26T11:29:45;99519.78;;;18.31;
46015;BME280;36844;51.898;-0.874;2023-03-26T11:32:15;99529.34;;;18.32;
46015;BME280;36844;51.898;-0.874;2023-03-26T11:34:43;99539.72;;;18.34;
46015;BME280;36844;51.898;-0.874;2023-03-26T11:37:13;99554.72;;;18.35;
46015;BME280;36844;51.898;-0.874;2023-03-26T11:39:49;99563.53;;;18.35;
46015;BME280;36844;51.898;-0.874;2023-03-26T11:42:17;99576.59;;;18.37;
46015;BME280;36844;51.898;-0.874;2023-03-26T11:44:45;99585.03;;;18.39;
46015;BME280;36844;51.898;-0.874;2023-03-26T11:47:12;99574.25;;;18.39;
46015;BME280;36844;51.898;-0.874;2023-03-26T11:49:39;99587.31;;;18.40;
46015;BME280;36844;51.898;-0.874;2023-03-26T11:52:08;99596.16;;;18.41;
46015;BME280;36844;51.898;-0.874;2023-03-26T11:54:34;99597.28;;;18.43;
46015;BME280;36844;51.898;-0.874;2023-03-26T12:07:16;99622.97;;;18.48;
46015;BME280;36844;51.898;-0.874;2023-03-26T12:10:00;99623.72;;;18.48;
46015;BME280;36844;51.898;-0.874;2023-03-26T12:12:28;99633.75;;;18.48;
46015;BME280;36844;51.898;-0.874;2023-03-26T12:14:53;99643.38;;;18.49;
46015;BME280;36844;51.898;-0.874;2023-03-26T12:17:35;99656.41;;;18.50;
46015;BME280;36844;51.898;-0.874;2023-03-26T12:20:01;99666.44;;;18.50;
46015;BME280;36844;51.898;-0.874;2023-03-26T12:22:46;99673.38;;;18.51;
46015;BME280;36844;51.898;-0.874;2023-03-26T12:25:13;99676.06;;;18.51;
46015;BME280;36844;51.898;-0.874;2023-03-26T12:27:43;99678.00;;;18.50;
46015;BME280;36844;51.898;-0.874;2023-03-26T12:30:10;99684.88;;;18.51;
46015;BME280;36844;51.898;-0.874;2023-03-26T12:32:39;99684.88;;;18.51;
46015;BME280;36844;51.898;-0.874;2023-03-26T12:35:06;99694.94;;;18.51;
46015;BME280;36844;51.898;-0.874;2023-03-26T12:37:38;99707.22;;;18.52;
46015;BME280;36844;51.898;-0.874;2023-03-26T12:42:52;99720.38;;;18.50;
46015;BME280;36844;51.898;-0.874;2023-03-26T12:45:21;99719.59;;;18.49;
46015;BME280;36844;51.898;-0.874;2023-03-26T12:47:47;99728.88;;;18.48;
46015;BME280;36844;51.898;-0.874;2023-03-26T12:50:13;99734.28;;;18.48;
46015;BME280;36844;51.898;-0.874;2023-03-26T12:57:58;99754.31;;;18.47;
46015;BME280;36844;51.898;-0.874;2023-03-26T13:05:53;99769.41;;;18.45;
46015;BME280;36844;51.898;-0.874;2023-03-26T13:19:13;99769.59;;;18.34;
46015;BME280;36844;51.898;-0.874;2023-03-26T13:31:38;99804.28;;;18.32;
46015;BME280;36844;51.898;-0.874;2023-03-26T13:51:42;99851.00;;;18.26;
46015;BME280;36844;51.898;-0.874;2023-03-26T13:54:28;99858.75;;;18.24;
46015;BME280;36844;51.898;-0.874;2023-03-26T13:57:01;99866.09;;;18.23;
46015;BME280;36844;51.898;-0.874;2023-03-26T13:59:30;99869.94;;;18.22;
46015;BME280;36844;51.898;-0.874;2023-03-26T14:02:01;99888.78;;;18.22;
46015;BME280;36844;51.898;-0.874;2023-03-26T14:04:30;99889.97;;;18.21;
46015;BME280;36844;51.898;-0.874;2023-03-26T14:07:02;99888.47;;;18.20;
46015;BME280;36844;51.898;-0.874;2023-03-26T14:09:46;99892.31;;;18.19;
46015;BME280;36844;51.898;-0.874;2023-03-26T14:12:17;99896.59;;;18.17;
46015;BME280;36844;51.898;-0.874;2023-03-26T14:14:53;99897.31;;;18.17;
46015;BME280;36844;51.898;-0.874;2023-03-26T14:17:37;99895.84;;;18.16;
46015;BME280;36844;51.898;-0.874;2023-03-26T14:20:19;99899.69;;;18.15;
46015;BME280;36844;51.898;-0.874;2023-03-26T14:38:22;99939.47;;;18.08;
46015;BME280;36844;51.898;-0.874;2023-03-26T14:46:20;99944.50;;;18.06;
46015;BME280;36844;51.898;-0.874;2023-03-26T14:54:12;99970.31;;;18.03;
46015;BME280;36844;51.898;-0.874;2023-03-26T14:56:41;99981.09;;;18.03;
46015;BME280;36844;51.898;-0.874;2023-03-26T15:20:14;100025.50;;;17.95;
46015;BME280;36844;51.898;-0.874;2023-03-26T15:25:39;100042.03;;;17.94;
46015;BME280;36844;51.898;-0.874;2023-03-26T15:31:06;100054.41;;;17.91;
46015;BME280;36844;51.898;-0.874;2023-03-26T15:41:14;100077.50;;;17.89;
46015;BME280;36844;51.898;-0.874;2023-03-26T15:46:29;100080.63;;;17.87;
46015;BME280;36844;51.898;-0.874;2023-03-26T15:49:40;100086.78;;;17.88;
46015;BME280;36844;51.898;-0.874;2023-03-26T15:52:02;100099.06;;;17.89;
46015;BME280;36844;51.898;-0.874;2023-03-26T15:59:38;100101.72;;;17.92;
46015;BME280;36844;51.898;-0.874;2023-03-26T16:04:37;100113.63;;;17.95;
46015;BME280;36844;51.898;-0.874;2023-03-26T16:07:22;100110.13;;;17.98;
46015;BME280;36844;51.898;-0.874;2023-03-26T16:09:54;100115.50;;;18.01;
46015;BME280;36844;51.898;-0.874;2023-03-26T16:12:26;100121.56;;;18.05;
46015;BME280;36844;51.898;-0.874;2023-03-26T16:17:38;100136.09;;;18.15;
46015;BME280;36844;51.898;-0.874;2023-03-26T16:27:45;100153.53;;;18.37;
46015;BME280;36844;51.898;-0.874;2023-03-26T16:30:15;100157.31;;;18.43;
46015;BME280;36844;51.898;-0.874;2023-03-26T16:32:53;100170.69;;;18.50;
46015;BME280;36844;51.898;-0.874;2023-03-26T16:40:48;100195.50;;;18.68;
46015;BME280;36844;51.898;-0.874;2023-03-26T16:46:09;100203.38;;;18.82;
46015;BME280;36844;51.898;-0.874;2023-03-26T16:48:45;100211.81;;;18.88;
46015;BME280;36844;51.898;-0.874;2023-03-26T16:53:53;100225.16;;;18.98;
46015;BME280;36844;51.898;-0.874;2023-03-26T16:56:43;100230.09;;;19.03;
46015;BME280;36844;51.898;-0.874;2023-03-26T17:01:57;100247.28;;;19.13;
46015;BME280;36844;51.898;-0.874;2023-03-26T17:04:29;100252.25;;;19.18;
46015;BME280;36844;51.898;-0.874;2023-03-26T17:07:02;100258.78;;;19.20;
46015;BME280;36844;51.898;-0.874;2023-03-26T17:09:40;100261.41;;;19.24;
46015;BME280;36844;51.898;-0.874;2023-03-26T17:12:16;100264.06;;;19.27;
46015;BME280;36844;51.898;-0.874;2023-03-26T17:14:57;100274.03;;;19.30;
46015;BME280;36844;51.898;-0.874;2023-03-26T17:20:07;100273.97;;;19.34;
46015;BME280;36844;51.898;-0.874;2023-03-26T17:22:44;100273.59;;;19.35;
46015;BME280;36844;51.898;-0.874;2023-03-26T17:27:44;100294.38;;;19.38;
46015;BME280;36844;51.898;-0.874;2023-03-26T17:32:56;100317.09;;;19.41;
46015;BME280;36844;51.898;-0.874;2023-03-26T17:35:39;100316.69;;;19.42;
46015;BME280;36844;51.898;-0.874;2023-03-26T17:40:54;100329.75;;;19.44;
46015;BME280;36844;51.898;-0.874;2023-03-26T17:45:58;100344.03;;;19.44;
46015;BME280;36844;51.898;-0.874;2023-03-26T17:48:24;100347.50;;;19.45;
46015;BME280;36844;51.898;-0.874;2023-03-26T17:50:56;100348.28;;;19.45;
46015;BME280;36844;51.898;-0.874;2023-03-26T17:53:28;100358.31;;;19.45;
46015;BME280;36844;51.898;-0.874;2023-03-26T17:55:56;100363.34;;;19.46;
46015;BME280;36844;51.898;-0.874;2023-03-26T17:58:29;100378.34;;;19.47;
46015;BME280;36844;51.898;-0.874;2023-03-26T18:01:01;100377.59;;;19.47;
46015;BME280;36844;51.898;-0.874;2023-03-26T18:03:29;100387.97;;;19.48;
46015;BME280;36844;51.898;-0.874;2023-03-26T18:06:09;100398.78;;;19.48;
46015;BME280;36844;51.898;-0.874;2023-03-26T18:16:16;100421.91;;;19.53;
46015;BME280;36844;51.898;-0.874;2023-03-26T18:21:17;100431.88;;;19.56;
46015;BME280;36844;51.898;-0.874;2023-03-26T18:23:45;100430.31;;;19.58;
46015;BME280;36844;51.898;-0.874;2023-03-26T18:26:12;100443.41;;;19.60;
46015;BME280;36844;51.898;-0.874;2023-03-26T18:28:40;100446.47;;;19.62;
46015;BME280;36844;51.898;-0.874;2023-03-26T18:31:15;100440.66;;;19.63;
46015;BME280;36844;51.898;-0.874;2023-03-26T18:33:45;100451.81;;;19.65;
46015;BME280;36844;51.898;-0.874;2023-03-26T18:36:10;100460.28;;;19.67;
46015;BME280;36844;51.898;-0.874;2023-03-26T18:38:36;100455.25;;;19.69;
46015;BME280;36844;51.898;-0.874;2023-03-26T18:41:01;100467.16;;;19.72;
46015;BME280;36844;51.898;-0.874;2023-03-26T18:43:27;100467.94;;;19.72;
46015;BME280;36844;51.898;-0.874;2023-03-26T18:45:52;100464.81;;;19.74;
46015;BME280;36844;51.898;-0.874;2023-03-26T18:48:19;100477.94;;;19.75;
46015;BME280;36844;51.898;-0.874;2023-03-26T18:50:45;100478.28;;;19.77;
46015;BME280;36844;51.898;-0.874;2023-03-26T18:53:15;100477.88;;;19.79;
46015;BME280;36844;51.898;-0.874;2023-03-26T18:55:42;100486.75;;;19.79;
46015;BME280;36844;51.898;-0.874;2023-03-26T19:00:51;100496.75;;;19.83;
46015;BME280;36844;51.898;-0.874;2023-03-26T19:03:19;100496.75;;;19.83;
46015;BME280;36844;51.898;-0.874;2023-03-26T19:05:45;100507.19;;;19.84;
46015;BME280;36844;51.898;-0.874;2023-03-26T19:08:11;100514.09;;;19.85;
46015;BME280;36844;51.898;-0.874;2023-03-26T19:10:36;100519.50;;;19.85;
46015;BME280;36844;51.898;-0.874;2023-03-26T19:13:02;100527.97;;;19.87;
46015;BME280;36844;51.898;-0.874;2023-03-26T19:15:34;100536.84;;;19.88;
46015;BME280;36844;51.898;-0.874;2023-03-26T19:18:01;100538.38;;;19.89;
46015;BME280;36844;51.898;-0.874;2023-03-26T19:20:43;100530.28;;;19.89;
46015;BME280;36844;51.898;-0.874;2023-03-26T19:23:13;100541.44;;;19.91;
46015;BME280;36844;51.898;-0.874;2023-03-26T19:25:41;100544.16;;;19.91;
46015;BME280;36844;51.898;-0.874;2023-03-26T19:30:41;100558.03;;;19.93;
46015;BME280;36844;51.898;-0.874;2023-03-26T19:33:14;100570.38;;;19.94;
46015;BME280;36844;51.898;-0.874;2023-03-26T19:35:42;100574.59;;;19.95;
46015;BME280;36844;51.898;-0.874;2023-03-26T19:38:27;100588.09;;;19.95;
46015;BME280;36844;51.898;-0.874;2023-03-26T19:40:56;100572.28;;;19.97;